createdAt,value
2023-02-17T00:00:19.449Z,91.3
2023-02-17T00:02:19.895Z,90.3
2023-02-17T00:04:18.566Z,90.3
2023-02-17T00:06:20.637Z,91.1
2023-02-17T00:08:18.497Z,91.1
2023-02-17T00:10:18.357Z,91.1
2023-02-17T00:12:17.722Z,90.9
2023-02-17T00:14:18.236Z,90.9
2023-02-17T00:16:19.932Z,90.9
2023-02-17T00:18:16.908Z,90.9
2023-02-17T00:20:16.796Z,90.9
2023-02-17T00:22:16.457Z,91.1
2023-02-17T00:24:16.794Z,91.1
2023-02-17T00:26:20.874Z,91.1
2023-02-17T00:28:15.820Z,91.1
2023-02-17T00:30:15.890Z,91.1
2023-02-17T00:32:16.255Z,90.6
2023-02-17T00:34:16.995Z,90.6
2023-02-17T00:36:16.695Z,91.1
2023-02-17T00:38:14.899Z,91.1
2023-02-17T00:40:15.034Z,90.2
2023-02-17T00:42:14.116Z,90.4
2023-02-17T00:44:17.442Z,90.4
2023-02-17T00:46:14.507Z,90.4
2023-02-17T00:48:13.637Z,90.8
2023-02-17T00:50:13.198Z,90.8
2023-02-17T00:52:13.103Z,91.1
2023-02-17T00:54:13.640Z,91.1
2023-02-17T00:56:13.276Z,91.1
2023-02-17T00:58:12.521Z,90.6
2023-02-17T01:00:13.210Z,90.6
2023-02-17T01:02:11.967Z,91.1
2023-02-17T01:04:11.852Z,91.1
2023-02-17T01:06:24.759Z,91.1
2023-02-17T01:08:11.405Z,91.1
2023-02-17T01:10:11.495Z,91.1
2023-02-17T01:12:11.357Z,90.3
2023-02-17T01:14:13.065Z,91.9
2023-02-17T01:16:17.304Z,90.3
2023-02-17T01:18:10.275Z,90.3
2023-02-17T01:20:11.810Z,90.9
2023-02-17T01:22:10.381Z,90.5
2023-02-17T01:24:10.727Z,90.5
2023-02-17T01:26:14.033Z,90.5
2023-02-17T01:28:13.883Z,90.8
2023-02-17T01:30:09.466Z,90.1
2023-02-17T01:32:08.281Z,90.7
2023-02-17T01:34:10.693Z,90.7
2023-02-17T01:36:13.596Z,90.7
2023-02-17T01:38:07.633Z,90.7
2023-02-17T01:40:08.385Z,90
2023-02-17T01:42:15.569Z,90.6
2023-02-17T01:44:12.555Z,90.6
2023-02-17T01:46:08.116Z,91.6
2023-02-17T01:48:11.365Z,91
2023-02-17T01:50:07.908Z,90.4
2023-02-17T01:52:12.342Z,91
2023-02-17T01:54:12.111Z,91
2023-02-17T01:56:06.865Z,91
2023-02-17T01:58:08.205Z,91
2023-02-17T02:00:12.714Z,91
2023-02-17T02:02:06.098Z,91.1
2023-02-17T02:04:07.315Z,91.1
2023-02-17T02:06:08.355Z,91.1
2023-02-17T02:08:07.120Z,91.1
2023-02-17T02:10:04.433Z,91.1
2023-02-17T02:12:19.050Z,91
2023-02-17T02:14:06.151Z,90.5
2023-02-17T02:16:13.797Z,90.5
2023-02-17T02:18:18.633Z,90.5
2023-02-17T02:20:34.354Z,90.5
2023-02-17T02:22:23.015Z,90.3
2023-02-17T02:24:15.514Z,90.3
2023-02-17T02:26:23.548Z,90.3
2023-02-17T02:28:17.322Z,90.3
2023-02-17T02:30:22.772Z,90.3
2023-02-17T02:32:20.329Z,90.3
2023-02-17T02:34:04.129Z,90.3
2023-02-17T02:36:10.547Z,91.3
2023-02-17T02:38:07.149Z,90.7
2023-02-17T02:40:08.587Z,90.7
2023-02-17T02:42:05.059Z,90.2
2023-02-17T02:44:02.165Z,90.2
2023-02-17T02:45:59.772Z,90.2
2023-02-17T02:48:01.172Z,90.2
2023-02-17T02:49:59.475Z,90.2
2023-02-17T02:52:09.014Z,90.3
2023-02-17T02:54:20.383Z,90.3
2023-02-17T02:56:11.107Z,90.3
2023-02-17T02:58:05.343Z,90.3
2023-02-17T03:00:10.673Z,89.7
2023-02-17T03:02:08.028Z,89.5
2023-02-17T03:04:08.912Z,90.2
2023-02-17T03:06:02.861Z,90.2
2023-02-17T03:08:03.611Z,90.2
2023-02-17T03:09:59.963Z,90.2
2023-02-17T03:11:59.344Z,90
2023-02-17T03:14:00.392Z,90
2023-02-17T03:15:56.675Z,90
2023-02-17T03:17:56.642Z,90
2023-02-17T03:19:55.872Z,90.7
2023-02-17T03:22:05.809Z,90.9
2023-02-17T03:23:55.840Z,90.2
2023-02-17T03:25:55.217Z,90.8
2023-02-17T03:27:55.052Z,90
2023-02-17T03:29:55.331Z,90
2023-02-17T03:31:54.618Z,90.6
2023-02-17T03:33:54.560Z,90.6
2023-02-17T03:35:54.017Z,90.6
2023-02-17T03:37:53.795Z,90.6
2023-02-17T03:39:53.517Z,90.6
2023-02-17T03:41:53.491Z,90.5
2023-02-17T03:43:53.026Z,90.5
2023-02-17T03:45:52.940Z,90.5
2023-02-17T03:47:52.623Z,90.5
2023-02-17T03:49:52.338Z,91.1
2023-02-17T03:51:52.157Z,90.9
2023-02-17T03:53:52.406Z,90.9
2023-02-17T03:55:51.727Z,90.9
2023-02-17T03:57:51.898Z,90.9
2023-02-17T03:59:51.254Z,90.3
2023-02-17T04:01:50.933Z,89.5
2023-02-17T04:03:50.809Z,90.1
2023-02-17T04:05:50.665Z,89
2023-02-17T04:07:50.575Z,89
2023-02-17T04:09:50.105Z,89
2023-02-17T04:11:49.862Z,88.9
2023-02-17T04:13:49.784Z,88.9
2023-02-17T04:15:50.413Z,88.4
2023-02-17T04:17:49.308Z,88.4
2023-02-17T04:19:49.048Z,88.4
2023-02-17T04:21:49.083Z,88.7
2023-02-17T04:23:48.748Z,89.3
2023-02-17T04:25:48.740Z,89.3
2023-02-17T04:27:48.044Z,89.3
2023-02-17T04:29:47.752Z,89.3
2023-02-17T04:31:47.570Z,89.3
2023-02-17T04:33:47.465Z,89.3
2023-02-17T04:35:47.348Z,89.3
2023-02-17T04:37:46.732Z,89.3
2023-02-17T04:39:46.582Z,89.3
2023-02-17T04:41:46.497Z,88.8
2023-02-17T04:43:46.010Z,88.8
2023-02-17T04:45:46.213Z,89.6
2023-02-17T04:47:45.713Z,89.6
2023-02-17T04:49:45.323Z,88.8
2023-02-17T04:51:45.089Z,88.9
2023-02-17T04:53:44.914Z,88.9
2023-02-17T04:55:47.336Z,88.2
2023-02-17T04:57:44.498Z,89.1
2023-02-17T04:59:44.355Z,89.1
2023-02-17T05:01:44.038Z,89.1
2023-02-17T05:03:43.760Z,88.4
2023-02-17T05:05:43.788Z,89.2
2023-02-17T05:07:43.385Z,89.2
2023-02-17T05:09:43.297Z,89.2
2023-02-17T05:11:42.792Z,88.9
2023-02-17T05:13:42.505Z,88.9
2023-02-17T05:15:43.560Z,88.9
2023-02-17T05:17:42.075Z,88.9
2023-02-17T05:19:41.806Z,88.4
2023-02-17T05:21:41.592Z,88.7
2023-02-17T05:23:41.541Z,88.7
2023-02-17T05:25:41.131Z,88.7
2023-02-17T05:27:40.983Z,88.7
2023-02-17T05:29:40.529Z,88.7
2023-02-17T05:31:40.512Z,89.2
2023-02-17T05:33:40.269Z,89.2
2023-02-17T05:35:40.032Z,89.2
2023-02-17T05:37:39.745Z,89.2
2023-02-17T05:39:39.607Z,89.2
2023-02-17T05:41:39.184Z,88.2
2023-02-17T05:43:39.116Z,88.2
2023-02-17T05:45:38.945Z,88.2
2023-02-17T05:47:38.524Z,88.2
2023-02-17T05:49:38.347Z,87.5
2023-02-17T05:51:38.177Z,87.5
2023-02-17T05:53:37.956Z,87.5
2023-02-17T05:55:37.900Z,88
2023-02-17T05:57:37.611Z,87.3
2023-02-17T05:59:37.255Z,87.3
2023-02-17T06:01:37.480Z,87.4
2023-02-17T06:03:37.383Z,87.4
2023-02-17T06:05:37.688Z,87.4
2023-02-17T06:07:36.826Z,86.7
2023-02-17T06:09:36.272Z,86.7
2023-02-17T06:11:36.376Z,86.7
2023-02-17T06:13:35.870Z,87.3
2023-02-17T06:15:35.703Z,86.6
2023-02-17T06:17:35.600Z,86.6
2023-02-17T06:19:35.295Z,86.6
2023-02-17T06:21:35.755Z,86.3
2023-02-17T06:23:34.810Z,86.3
2023-02-17T06:25:34.667Z,85.9
2023-02-17T06:27:34.671Z,85.9
2023-02-17T06:29:34.208Z,85.9
2023-02-17T06:31:34.374Z,85.9
2023-02-17T06:33:33.841Z,85.9
2023-02-17T06:35:33.589Z,85.9
2023-02-17T06:37:33.422Z,85.9
2023-02-17T06:39:33.361Z,85.9
2023-02-17T06:41:33.060Z,86.3
2023-02-17T06:43:32.838Z,86.3
2023-02-17T06:45:32.861Z,86.3
2023-02-17T06:47:32.577Z,86.3
2023-02-17T06:49:32.189Z,85.2
2023-02-17T06:51:32.062Z,85.1
2023-02-17T06:53:31.908Z,85.1
2023-02-17T06:55:31.778Z,85.1
2023-02-17T06:57:31.532Z,86.3
2023-02-17T06:59:31.667Z,85.7
2023-02-17T07:01:31.123Z,85.7
2023-02-17T07:03:31.925Z,85.7
2023-02-17T07:05:30.800Z,85.7
2023-02-17T07:07:30.666Z,86.6
2023-02-17T07:09:30.459Z,84.8
2023-02-17T07:11:30.292Z,85.4
2023-02-17T07:13:29.989Z,85.4
2023-02-17T07:15:29.865Z,85.4
2023-02-17T07:17:29.655Z,85.9
2023-02-17T07:19:29.905Z,85.4
2023-02-17T07:21:29.464Z,85
2023-02-17T07:23:29.292Z,84.5
2023-02-17T07:25:29.053Z,84.5
2023-02-17T07:27:28.876Z,84.5
2023-02-17T07:29:28.717Z,83.2
2023-02-17T07:31:28.757Z,83
2023-02-17T07:33:28.754Z,83
2023-02-17T07:35:28.129Z,82.1
2023-02-17T07:37:28.026Z,82.1
2023-02-17T07:39:27.913Z,82.1
2023-02-17T07:41:28.679Z,82
2023-02-17T07:43:27.534Z,82
2023-02-17T07:45:27.522Z,82
2023-02-17T07:47:27.194Z,81.5
2023-02-17T07:49:27.041Z,82
2023-02-17T07:51:27.305Z,83.2
2023-02-17T07:53:26.801Z,83.2
2023-02-17T07:55:26.636Z,81.9
2023-02-17T07:57:26.597Z,81.4
2023-02-17T07:59:26.516Z,82.1
2023-02-17T08:01:26.262Z,82
2023-02-17T08:03:26.078Z,82
2023-02-17T08:05:26.067Z,82
2023-02-17T08:07:25.955Z,81.5
2023-02-17T08:09:25.665Z,81.5
2023-02-17T08:11:25.803Z,81.2
2023-02-17T08:13:27.466Z,80.3
2023-02-17T08:15:25.357Z,80.8
2023-02-17T08:17:25.036Z,80.3
2023-02-17T08:19:27.227Z,80.9
2023-02-17T08:21:26.625Z,80.2
2023-02-17T08:23:24.724Z,81
2023-02-17T08:25:24.510Z,81.8
2023-02-17T08:27:24.680Z,83.1
2023-02-17T08:29:24.383Z,83.1
2023-02-17T08:31:26.873Z,83.6
2023-02-17T08:33:23.981Z,84.3
2023-02-17T08:35:23.804Z,83.7
2023-02-17T08:37:23.705Z,83.7
2023-02-17T08:39:23.468Z,83.7
2023-02-17T08:41:26.701Z,84.3
2023-02-17T08:43:23.263Z,83.6
2023-02-17T08:45:23.042Z,82.8
2023-02-17T08:47:22.868Z,82.8
2023-02-17T08:49:25.406Z,82.1
2023-02-17T08:51:24.683Z,82.1
2023-02-17T08:53:22.345Z,81.4
2023-02-17T08:55:22.454Z,82.3
2023-02-17T08:57:22.003Z,82.3
2023-02-17T08:59:21.916Z,82.3
2023-02-17T09:01:22.930Z,82.1
2023-02-17T09:03:21.499Z,82.1
2023-02-17T09:05:21.741Z,82.6
2023-02-17T09:07:21.909Z,82.6
2023-02-17T09:09:23.042Z,82.6
2023-02-17T09:11:20.878Z,81.8
2023-02-17T09:13:20.697Z,82.4
2023-02-17T09:15:20.471Z,82.4
2023-02-17T09:17:20.358Z,82.4
2023-02-17T09:19:20.386Z,82.4
2023-02-17T09:21:20.642Z,82.4
2023-02-17T09:23:20.128Z,82.6
2023-02-17T09:25:19.461Z,82.9
2023-02-17T09:27:19.400Z,82.9
2023-02-17T09:29:19.156Z,82.9
2023-02-17T09:31:21.165Z,82.1
2023-02-17T09:33:18.796Z,82.1
2023-02-17T09:35:19.076Z,81.5
2023-02-17T09:37:19.373Z,81.5
2023-02-17T09:39:18.207Z,81.5
2023-02-17T09:41:21.379Z,80.7
2023-02-17T09:43:21.654Z,80.7
2023-02-17T09:45:24.497Z,80.2
2023-02-17T09:47:23.089Z,80.8
2023-02-17T09:49:20.690Z,80.2
2023-02-17T09:51:26.727Z,80.8
2023-02-17T09:53:24.688Z,80.8
2023-02-17T09:55:22.403Z,80.8
2023-02-17T09:57:20.214Z,81.3
2023-02-17T09:59:21.125Z,80.5
2023-02-17T10:01:19.767Z,80.5
2023-02-17T10:03:22.808Z,79.9
2023-02-17T10:05:21.624Z,79.9
2023-02-17T10:07:20.671Z,79.9
2023-02-17T10:09:20.934Z,79.9
2023-02-17T10:11:22.800Z,80.2
2023-02-17T10:13:19.544Z,80.2
2023-02-17T10:15:18.532Z,79.2
2023-02-17T10:17:22.752Z,79.2
2023-02-17T10:19:18.999Z,79.2
2023-02-17T10:21:18.343Z,79.2
2023-02-17T10:23:17.076Z,79.5
2023-02-17T10:25:18.159Z,79.5
2023-02-17T10:27:24.044Z,79.5
2023-02-17T10:29:25.127Z,79.5
2023-02-17T10:31:25.738Z,79.2
2023-02-17T10:33:21.006Z,79.2
2023-02-17T10:35:14.816Z,79.2
2023-02-17T10:37:17.371Z,79.8
2023-02-17T10:39:15.509Z,79.8
2023-02-17T10:41:15.740Z,78.6
2023-02-17T10:43:21.012Z,78.4
2023-02-17T10:45:18.939Z,77.8
2023-02-17T10:47:12.275Z,77.8
2023-02-17T10:49:20.943Z,77.8
2023-02-17T10:51:15.379Z,77.8
2023-02-17T10:53:14.158Z,78
2023-02-17T10:55:23.692Z,78
2023-02-17T10:57:14.246Z,78
2023-02-17T10:59:20.524Z,77.1
2023-02-17T11:01:12.288Z,77.8
2023-02-17T11:03:19.249Z,77.8
2023-02-17T11:05:22.442Z,78.5
2023-02-17T11:07:13.259Z,78.5
2023-02-17T11:09:19.849Z,77.8
2023-02-17T11:11:17.468Z,77.8
2023-02-17T11:13:31.220Z,77.8
2023-02-17T11:15:17.987Z,77.8
2023-02-17T11:17:15.945Z,77.8
2023-02-17T11:19:21.732Z,77.8
2023-02-17T11:21:10.987Z,77.2
2023-02-17T11:23:23.170Z,77.2
2023-02-17T11:25:22.314Z,77.2
2023-02-17T11:27:11.267Z,77.1
2023-02-17T11:29:14.874Z,77.1
2023-02-17T11:31:23.389Z,77
2023-02-17T11:33:13.186Z,77
2023-02-17T11:35:22.065Z,77
2023-02-17T11:37:20.369Z,76.5
2023-02-17T11:39:22.750Z,76.5
2023-02-17T11:41:08.783Z,76.5
2023-02-17T11:43:15.726Z,76.7
2023-02-17T11:45:17.706Z,76.7
2023-02-17T11:47:15.042Z,76.7
2023-02-17T11:49:35.757Z,76.7
2023-02-17T11:51:14.133Z,76.7
2023-02-17T11:53:19.792Z,76.6
2023-02-17T11:55:20.137Z,76.6
2023-02-17T11:57:32.367Z,75.9
2023-02-17T11:59:21.827Z,76.6
2023-02-17T12:01:31.607Z,76.2
2023-02-17T12:03:29.972Z,76.2
2023-02-17T12:05:20.090Z,76.7
2023-02-17T12:07:25.411Z,76.7
2023-02-17T12:09:15.185Z,75.9
2023-02-17T12:11:16.769Z,76
2023-02-17T12:13:23.836Z,76
2023-02-17T12:15:25.298Z,76
2023-02-17T12:17:17.405Z,76
2023-02-17T12:19:24.155Z,76
2023-02-17T12:21:11.651Z,76
2023-02-17T12:23:21.198Z,76.1
2023-02-17T12:25:21.814Z,76.1
2023-02-17T12:27:13.563Z,76.1
2023-02-17T12:29:16.107Z,76.1
2023-02-17T12:31:17.244Z,76.2
2023-02-17T12:33:19.821Z,76.2
2023-02-17T12:35:18.938Z,76.2
2023-02-17T12:37:05.801Z,76.2
2023-02-17T12:39:12.949Z,76.2
2023-02-17T12:41:06.728Z,76.2
2023-02-17T12:43:13.093Z,75.5
2023-02-17T12:45:06.723Z,75.5
2023-02-17T12:47:12.591Z,75.5
2023-02-17T12:49:11.013Z,76
2023-02-17T12:51:08.601Z,76.6
2023-02-17T12:53:07.311Z,76.3
2023-02-17T12:55:11.079Z,76.3
2023-02-17T12:57:12.633Z,76.3
2023-02-17T12:59:12.538Z,76
2023-02-17T13:01:09.335Z,76.7
2023-02-17T13:03:06.861Z,76.7
2023-02-17T13:05:06.563Z,76.7
2023-02-17T13:07:15.884Z,77.5
2023-02-17T13:09:12.332Z,76.8
2023-02-17T13:11:02.494Z,76.8
2023-02-17T13:13:04.742Z,77.3
2023-02-17T13:15:03.928Z,77.3
2023-02-17T13:17:00.154Z,77.3
2023-02-17T13:19:07.349Z,77.3
2023-02-17T13:21:14.316Z,77.3
2023-02-17T13:23:08.111Z,77.3
2023-02-17T13:24:59.763Z,77.3
2023-02-17T13:27:10.773Z,77.7
2023-02-17T13:29:33.031Z,78.2
2023-02-17T13:31:10.444Z,77.6
2023-02-17T13:33:02.661Z,77.8
2023-02-17T13:35:02.175Z,77.8
2023-02-17T13:37:03.244Z,78.4
2023-02-17T13:39:01.320Z,77.6
2023-02-17T13:41:00.987Z,77.6
2023-02-17T13:43:09.300Z,77.1
2023-02-17T13:44:58.444Z,77.1
2023-02-17T13:47:01.656Z,77.1
2023-02-17T13:49:00.390Z,77.1
2023-02-17T13:50:59.012Z,78.2
2023-02-17T13:52:57.903Z,78.2
2023-02-17T13:54:59.133Z,78.7
2023-02-17T13:56:57.055Z,78.7
2023-02-17T13:59:07.404Z,78.7
2023-02-17T14:00:58.223Z,78.7
2023-02-17T14:02:58.778Z,79
2023-02-17T14:04:56.750Z,79.3
2023-02-17T14:06:58.178Z,79.3
2023-02-17T14:08:56.711Z,79.3
2023-02-17T14:10:56.854Z,79.3
2023-02-17T14:12:56.573Z,79.2
2023-02-17T14:14:55.974Z,79.2
2023-02-17T14:16:59.275Z,79.2
2023-02-17T14:19:03.053Z,79.2
2023-02-17T14:21:00.822Z,79.2
2023-02-17T14:23:05.626Z,79.6
2023-02-17T14:25:00.624Z,79.6
2023-02-17T14:26:58.607Z,79.7
2023-02-17T14:28:57.023Z,79.7
2023-02-17T14:30:54.917Z,80.5
2023-02-17T14:33:02.035Z,80.5
2023-02-17T14:35:05.440Z,80.5
2023-02-17T14:36:55.093Z,80.5
2023-02-17T14:38:55.844Z,80.5
2023-02-17T14:40:54.130Z,80.5
2023-02-17T14:42:53.576Z,80.8
2023-02-17T14:44:53.402Z,81
2023-02-17T14:46:53.367Z,81
2023-02-17T14:48:53.694Z,81
2023-02-17T14:50:53.704Z,81
2023-02-17T14:52:52.867Z,81.3
2023-02-17T14:54:52.679Z,81.2
2023-02-17T14:57:02.754Z,81.2
2023-02-17T14:58:52.322Z,81.7
2023-02-17T15:00:52.148Z,81.7
2023-02-17T15:02:52.139Z,81.5
2023-02-17T15:04:51.733Z,81.5
2023-02-17T15:06:52.452Z,81.5
2023-02-17T15:08:52.553Z,81.5
2023-02-17T15:10:51.199Z,81.5
2023-02-17T15:12:51.881Z,81.9
2023-02-17T15:14:50.903Z,81.9
2023-02-17T15:16:50.698Z,81.9
2023-02-17T15:18:50.511Z,81.9
2023-02-17T15:20:51.896Z,82.2
2023-02-17T15:22:50.359Z,82.2
2023-02-17T15:24:49.987Z,82.2
2023-02-17T15:26:49.995Z,82.2
2023-02-17T15:28:49.832Z,82.2
2023-02-17T15:30:54.009Z,82.2
2023-02-17T15:32:49.387Z,82.4
2023-02-17T15:34:49.127Z,82.4
2023-02-17T15:36:49.141Z,82.4
2023-02-17T15:38:48.817Z,82.4
2023-02-17T15:40:49.222Z,82.4
2023-02-17T15:42:53.785Z,82.8
2023-02-17T15:44:49.668Z,82.8
2023-02-17T15:46:50.180Z,82.8
2023-02-17T15:48:48.465Z,82.8
2023-02-17T15:50:47.777Z,82.8
2023-02-17T15:52:48.716Z,82.8
2023-02-17T15:55:02.223Z,82.8
2023-02-17T15:56:50.230Z,82.8
2023-02-17T15:58:48.839Z,82.8
2023-02-17T16:00:47.377Z,82.8
2023-02-17T16:02:46.819Z,83.1
2023-02-17T16:04:46.713Z,83.1
2023-02-17T16:06:46.424Z,83.1
2023-02-17T16:08:46.504Z,83.1
2023-02-17T16:10:46.290Z,83.4
2023-02-17T16:12:47.666Z,83.3
2023-02-17T16:14:45.776Z,83.3
2023-02-17T16:16:45.781Z,83.3
2023-02-17T16:18:46.240Z,83.3
2023-02-17T16:20:45.149Z,83.3
2023-02-17T16:22:46.051Z,83.2
2023-02-17T16:24:44.933Z,83.2
2023-02-17T16:26:44.986Z,82.8
2023-02-17T16:28:44.730Z,82.8
2023-02-17T16:30:45.189Z,82.8
2023-02-17T16:32:45.489Z,83.3
2023-02-17T16:34:45.182Z,83.4
2023-02-17T16:36:44.269Z,83.4
2023-02-17T16:38:44.382Z,83.4
2023-02-17T16:40:46.367Z,83.4
2023-02-17T16:42:43.809Z,83
2023-02-17T16:44:43.360Z,83
2023-02-17T16:46:47.026Z,83
2023-02-17T16:48:43.083Z,83
2023-02-17T16:50:43.130Z,83
2023-02-17T16:52:42.398Z,83.5
2023-02-17T16:54:42.411Z,84.2
2023-02-17T16:56:45.992Z,84.2
2023-02-17T16:58:41.990Z,83.7
2023-02-17T17:00:43.004Z,83.7
2023-02-17T17:02:42.097Z,83.6
2023-02-17T17:04:41.408Z,83.6
2023-02-17T17:06:46.106Z,84.2
2023-02-17T17:08:40.996Z,84.2
2023-02-17T17:10:42.075Z,83.4
2023-02-17T17:12:41.270Z,83.9
2023-02-17T17:14:40.558Z,83.9
2023-02-17T17:16:43.869Z,83.9
2023-02-17T17:18:40.330Z,83.9
2023-02-17T17:20:41.744Z,83.9
2023-02-17T17:22:40.076Z,83.5
2023-02-17T17:24:39.787Z,83.3
2023-02-17T17:26:42.625Z,83.3
2023-02-17T17:28:39.444Z,82.5
2023-02-17T17:30:39.593Z,82.5
2023-02-17T17:32:38.956Z,82.3
2023-02-17T17:34:39.388Z,82.3
2023-02-17T17:36:40.981Z,82.3
2023-02-17T17:38:38.490Z,82.3
2023-02-17T17:40:38.534Z,82.3
2023-02-17T17:42:38.190Z,81.9
2023-02-17T17:44:39.308Z,81.9
2023-02-17T17:46:38.551Z,81.9
2023-02-17T17:48:37.651Z,80.9
2023-02-17T17:50:38.003Z,81.7
2023-02-17T17:52:37.617Z,81.5
2023-02-17T17:54:37.812Z,81.9
2023-02-17T17:56:39.988Z,81.4
2023-02-17T17:58:36.879Z,81.4
2023-02-17T18:00:36.507Z,81.4
2023-02-17T18:02:36.628Z,81.5
2023-02-17T18:04:36.468Z,81.5
2023-02-17T18:06:40.054Z,81.5
2023-02-17T18:08:36.770Z,81.5
2023-02-17T18:10:37.746Z,81.5
2023-02-17T18:12:37.348Z,81.1
2023-02-17T18:14:38.533Z,81.1
2023-02-17T18:16:36.135Z,81.1
2023-02-17T18:18:36.242Z,81.1
2023-02-17T18:20:35.066Z,81.7
2023-02-17T18:22:34.797Z,82.2
2023-02-17T18:24:34.599Z,81.2
2023-02-17T18:26:34.722Z,81.2
2023-02-17T18:28:34.637Z,81.9
2023-02-17T18:30:34.446Z,82
2023-02-17T18:32:33.854Z,81.3
2023-02-17T18:34:34.198Z,81.3
2023-02-17T18:36:33.605Z,82.4
2023-02-17T18:38:33.481Z,81.7
2023-02-17T18:40:36.484Z,81.7
2023-02-17T18:42:33.981Z,81.4
2023-02-17T18:44:33.031Z,81.4
2023-02-17T18:46:33.264Z,82.2
2023-02-17T18:48:32.497Z,81.5
2023-02-17T18:50:32.394Z,81.5
2023-02-17T18:52:32.052Z,82.2
2023-02-17T18:54:31.953Z,82.2
2023-02-17T18:56:32.334Z,82.2
2023-02-17T18:58:31.962Z,82.2
2023-02-17T19:00:31.287Z,82.8
2023-02-17T19:02:31.226Z,81.7
2023-02-17T19:04:30.855Z,82.4
2023-02-17T19:06:34.604Z,82.4
2023-02-17T19:08:30.465Z,82.4
2023-02-17T19:10:30.295Z,82.4
2023-02-17T19:12:30.224Z,82.1
2023-02-17T19:14:30.752Z,83.1
2023-02-17T19:16:31.031Z,83.1
2023-02-17T19:18:29.481Z,82.2
2023-02-17T19:20:30.222Z,82.2
2023-02-17T19:22:29.158Z,82.9
2023-02-17T19:24:28.975Z,82.9
2023-02-17T19:26:28.748Z,82.9
2023-02-17T19:28:28.801Z,82.9
2023-02-17T19:30:28.363Z,82.9
2023-02-17T19:32:28.136Z,82.8
2023-02-17T19:34:28.791Z,82.8
2023-02-17T19:36:27.697Z,82.8
2023-02-17T19:38:27.584Z,82.8
2023-02-17T19:40:27.285Z,82.8
2023-02-17T19:42:27.195Z,83
2023-02-17T19:44:26.804Z,83
2023-02-17T19:46:26.658Z,83
2023-02-17T19:48:26.545Z,83
2023-02-17T19:50:26.703Z,83
2023-02-17T19:52:26.658Z,83.4
2023-02-17T19:54:25.693Z,83.9
2023-02-17T19:56:26.880Z,83.9
2023-02-17T19:58:25.325Z,83.9
2023-02-17T20:00:25.287Z,83.9
2023-02-17T20:02:25.080Z,84
2023-02-17T20:04:24.716Z,84.4
2023-02-17T20:06:26.886Z,84.4
2023-02-17T20:08:24.225Z,84.4
2023-02-17T20:10:24.037Z,84.4
2023-02-17T20:12:23.831Z,84.8
2023-02-17T20:14:23.914Z,85.1
2023-02-17T20:16:23.420Z,85.1
2023-02-17T20:18:23.219Z,85.1
2023-02-17T20:20:22.860Z,85.1
2023-02-17T20:22:22.578Z,85
2023-02-17T20:24:22.530Z,85.7
2023-02-17T20:26:28.507Z,85.1
2023-02-17T20:28:22.660Z,85.1
2023-02-17T20:30:21.989Z,85.1
2023-02-17T20:32:21.680Z,85.2
2023-02-17T20:34:28.077Z,85.2
2023-02-17T20:36:21.230Z,85.2
2023-02-17T20:38:21.262Z,85.2
2023-02-17T20:40:20.641Z,85.2
2023-02-17T20:42:20.426Z,84.6
2023-02-17T20:44:20.207Z,84.6
2023-02-17T20:46:23.556Z,84.6
2023-02-17T20:48:19.928Z,85.3
2023-02-17T20:50:21.338Z,85.3
2023-02-17T20:52:19.275Z,84.6
2023-02-17T20:54:19.215Z,85.3
2023-02-17T20:56:21.383Z,84.7
2023-02-17T20:58:19.096Z,84.7
2023-02-17T21:00:21.113Z,85.4
2023-02-17T21:02:18.268Z,84.8
2023-02-17T21:04:17.886Z,84.8
2023-02-17T21:06:21.443Z,84.8
2023-02-17T21:08:17.613Z,85.5
2023-02-17T21:10:21.130Z,85.5
2023-02-17T21:12:17.195Z,85.3
2023-02-17T21:14:17.057Z,85.5
2023-02-17T21:16:18.540Z,85.5
2023-02-17T21:18:16.543Z,85.5
2023-02-17T21:20:19.419Z,85.5
2023-02-17T21:22:16.055Z,85.4
2023-02-17T21:24:15.903Z,85.4
2023-02-17T21:26:16.816Z,85.4
2023-02-17T21:28:17.504Z,85.4
2023-02-17T21:30:15.630Z,85.4
2023-02-17T21:32:15.032Z,85.3
2023-02-17T21:34:14.860Z,85.3
2023-02-17T21:36:17.342Z,85.3
2023-02-17T21:38:14.395Z,86.1
2023-02-17T21:40:14.488Z,85.5
2023-02-17T21:42:14.056Z,85.8
2023-02-17T21:44:13.867Z,85.8
2023-02-17T21:46:13.615Z,85.8
2023-02-17T21:48:13.497Z,86.3
2023-02-17T21:50:13.219Z,85.7
2023-02-17T21:52:13.497Z,85.9
2023-02-17T21:54:12.826Z,86.2
2023-02-17T21:56:13.345Z,86.2
2023-02-17T21:58:12.453Z,86.2
2023-02-17T22:00:13.666Z,86.2
2023-02-17T22:02:12.490Z,85.7
2023-02-17T22:04:11.836Z,85.7
2023-02-17T22:06:16.453Z,85.7
2023-02-17T22:08:11.392Z,85.7
2023-02-17T22:10:11.324Z,85.7
2023-02-17T22:12:10.919Z,85.1
2023-02-17T22:14:13.789Z,85.1
2023-02-17T22:16:11.294Z,85.1
2023-02-17T22:18:10.538Z,85.1
2023-02-17T22:20:10.935Z,85.1
2023-02-17T22:22:09.961Z,85.2
2023-02-17T22:24:09.722Z,85.2
2023-02-17T22:26:13.378Z,85.2
2023-02-17T22:28:11.222Z,85.6
2023-02-17T22:30:09.849Z,85.1
2023-02-17T22:32:08.888Z,85.3
2023-02-17T22:34:09.072Z,85.3
2023-02-17T22:36:11.050Z,85.3
2023-02-17T22:38:09.298Z,85.3
2023-02-17T22:40:08.699Z,85.3
2023-02-17T22:42:07.902Z,85.3
2023-02-17T22:44:07.872Z,85.3
2023-02-17T22:46:08.911Z,85.3
2023-02-17T22:48:07.200Z,85.3
2023-02-17T22:50:07.013Z,85.3
2023-02-17T22:52:06.857Z,85.2
2023-02-17T22:54:07.588Z,85.2
2023-02-17T22:56:07.469Z,85.2
2023-02-17T22:58:06.049Z,85.2
2023-02-17T23:00:07.380Z,85.2
2023-02-17T23:02:05.653Z,85.3
2023-02-17T23:04:05.785Z,85.3
2023-02-17T23:06:07.942Z,85.3
2023-02-17T23:08:05.462Z,85.7
2023-02-17T23:10:06.389Z,85.7
2023-02-17T23:12:04.933Z,85.3
2023-02-17T23:14:04.440Z,85.3
2023-02-17T23:16:06.264Z,85.3
2023-02-17T23:18:04.162Z,85.3
2023-02-17T23:20:04.173Z,85.3
2023-02-17T23:22:06.495Z,85.5
2023-02-17T23:24:04.236Z,85.5
2023-02-17T23:26:03.346Z,85.5
2023-02-17T23:28:02.982Z,85.5
2023-02-17T23:30:03.087Z,85.5
2023-02-17T23:32:02.570Z,85.7
2023-02-17T23:34:02.342Z,85.7
2023-02-17T23:36:03.385Z,85.7
2023-02-17T23:38:01.920Z,85.7
2023-02-17T23:40:02.120Z,85.7
2023-02-17T23:42:01.411Z,85.7
2023-02-17T23:44:01.538Z,85.7
2023-02-17T23:46:01.969Z,85.7
2023-02-17T23:48:01.246Z,85.7
2023-02-17T23:50:00.942Z,85.7
2023-02-17T23:52:01.504Z,85.7
2023-02-17T23:54:00.144Z,85.7
2023-02-17T23:56:02.163Z,85.7
2023-02-17T23:58:00.657Z,85.7
2023-02-17T23:59:59.470Z,85.7
